Quick Links (Output Below):   Max & Min Temps   /   Climate Reports   /   Zone Forecasts
River Forecasts   /   Forestry Forecasts   /   Aviation Forecasts   /   Radars   /   Features

Terminal Aerodrome Forecast (Arkadelphia)

Pick a Site:
Arkadelphia | El Dorado | Fayetteville | Fort Smith | Harrison | Highfill | Hot Springs | Jonesboro
Little Rock | Monticello | Mountain Home | Pine Bluff | Texarkana
 Forecast 

KADF 262329Z 2700/2724 06012KT P6SM BKN100
     FM270700 07010G25KT P6SM VCTS BKN040CB OVC120
     FM271200 08010G20KT 6SM SHRA VCTS BKN060CB=


 Latest METARs (Observations) 
How to Decode METARs
01Z KADF 270056Z AUTO 06007KT 10SM CLR 19/16 A2977 RMK AO2 T01940155
         SLP094
         
00Z KADF 262356Z AUTO 06006KT 10SM CLR 21/17 A2976 RMK AO2 53003
         T02110166 10266 20211 SLP092
         
***** Today's Observations (Above) *****


23Z KADF 262256Z AUTO 06007KT 10SM CLR 23/18 A2976 RMK AO2 T02330177
         SLP090
         
22Z KADF 262156Z AUTO 05009KT 10SM CLR 25/18 A2975 RMK AO2 T02500177
         SLP086
         
21Z KADF 262056Z AUTO VRB06KT 10SM FEW042 27/18 A2975 RMK AO2 56009
         T02660183 SLP087
         
20Z KADF 261956Z AUTO VRB06KT 10SM CLR 27/18 A2976 RMK AO2 T02660177
         SLP089
         
19Z KADF 261856Z AUTO 06005KT 10SM CLR 26/18 A2977 RMK AO2 T02610177
         SLP094
         
18Z KADF 261756Z AUTO 05004KT 10SM CLR 25/17 A2978 RMK AO2 58005
         T02500172 10250 20133 SLP097
         
17Z KADF 261656Z AUTO 06006KT 10SM CLR 24/17 A2980 RMK AO2 T02440172
         SLP102
         
16Z KADF 261556Z AUTO 05004KT 10SM CLR 23/16 A2980 RMK AO2 T02270161
         SLP103
         
***** Yesterday's Observations (Above) *****


Back to Main Page
http://www.srh.noaa.gov/lzk/qfcst.php

USA.gov is the U.S. government's official web portal to all federal, state and local government web resources and services.